Time;durP1;ratioP1;P1;durP2;ratioP2;P2;SDS_P1;SDS_P2;PMS_P1;PMS_P2;Temp;Humidity;BMP_temperature;BMP_pressure;BME280_temperature;BME280_humidity;BME280_pressure;Samples;Min_cycle;Max_cycle;Signal;HPM_P1;HPM_P2
2021/11/10 00:01:52;;;;;;;13.23;8.45;;;;;;;;;;4997010;28;20184;-78
2021/11/10 00:04:19;;;;;;;15.38;7.95;;;;;;;;;;4996931;28;20540;-78
2021/11/10 00:06:45;;;;;;;14.05;7.10;;;;;;;;;;4996968;28;20240;-78
2021/11/10 00:09:11;;;;;;;12.80;7.55;;;;;;;;;;4996609;28;20241;-79
2021/11/10 00:11:37;;;;;;;8.73;6.57;;;;;;;;;;4996638;28;20195;-77
2021/11/10 00:14:04;;;;;;;15.25;7.78;;;;;;;;;;4996698;28;20214;-78
2021/11/10 00:16:30;;;;;;;10.38;7.00;;;;;;;;;;4996607;28;20187;-81
2021/11/10 00:18:56;;;;;;;12.90;7.85;;;;;;;;;;4996753;28;20184;-75
2021/11/10 00:21:23;;;;;;;11.00;7.22;;;;;;;;;;4996204;28;20277;-77
2021/11/10 00:23:49;;;;;;;11.73;6.43;;;;;;;;;;4996607;28;20255;-78
2021/11/10 00:26:15;;;;;;;14.45;5.95;;;;;;;;;;4996454;28;20203;-79
2021/11/10 00:28:41;;;;;;;10.13;5.88;;;;;;;;;;4996590;28;20186;-80
2021/11/10 00:31:08;;;;;;;11.90;5.43;;;;;;;;;;4995997;28;20242;-77
2021/11/10 00:33:34;;;;;;;9.60;6.22;;;;;;;;;;4996426;28;20214;-79
2021/11/10 00:36:00;;;;;;;7.28;5.50;;;;;;;;;;4996144;28;20210;-77
2021/11/10 00:38:26;;;;;;;14.88;6.68;;;;;;;;;;4996280;28;20179;-80
2021/11/10 00:40:53;;;;;;;9.05;5.95;;;;;;;;;;4995958;28;20209;-79
2021/11/10 00:43:19;;;;;;;13.70;7.53;;;;;;;;;;4996131;28;20666;-78
2021/11/10 00:45:45;;;;;;;12.05;6.97;;;;;;;;;;4996250;28;20186;-79
2021/11/10 00:48:14;;;;;;;10.38;6.40;;;;;;;;;;4995999;28;20185;-76
2021/11/10 00:50:40;;;;;;;10.23;7.45;;;;;;;;;;4995627;28;20206;-79
2021/11/10 00:53:07;;;;;;;11.20;6.97;;;;;;;;;;4995963;28;20640;-78
2021/11/10 00:55:34;;;;;;;12.10;6.65;;;;;;;;;;4995935;28;20167;-79
2021/11/10 00:58:00;;;;;;;12.63;7.70;;;;;;;;;;4995762;28;20179;-77
2021/11/10 01:00:26;;;;;;;22.35;7.13;;;;;;;;;;4995352;28;20202;-78
2021/11/10 01:02:52;;;;;;;16.63;6.97;;;;;;;;;;4995806;28;20214;-80
2021/11/10 01:05:19;;;;;;;10.75;7.22;;;;;;;;;;4995876;28;20209;-79
2021/11/10 01:07:45;;;;;;;13.55;6.97;;;;;;;;;;4993335;28;20693;-76
2021/11/10 01:10:12;;;;;;;10.80;6.90;;;;;;;;;;4995394;28;20274;-78
2021/11/10 01:12:38;;;;;;;12.43;7.13;;;;;;;;;;4994619;28;20239;-77
2021/11/10 01:15:05;;;;;;;15.18;7.25;;;;;;;;;;4995590;28;20234;-78
2021/11/10 01:17:31;;;;;;;9.65;6.40;;;;;;;;;;4995658;28;20262;-78
2021/11/10 01:19:57;;;;;;;11.65;7.00;;;;;;;;;;4994964;28;20599;-76
2021/11/10 01:22:23;;;;;;;15.87;7.40;;;;;;;;;;4995437;28;20261;-76
2021/11/10 01:24:49;;;;;;;13.00;7.10;;;;;;;;;;4994193;28;20918;-77
2021/11/10 01:27:15;;;;;;;12.52;7.30;;;;;;;;;;4993986;28;20252;-78
2021/11/10 01:29:42;;;;;;;10.55;7.90;;;;;;;;;;4994842;28;20610;-78
2021/11/10 01:32:08;;;;;;;11.80;6.65;;;;;;;;;;4995266;28;20174;-79
2021/11/10 01:34:34;;;;;;;9.90;6.93;;;;;;;;;;4995044;28;20182;-77
2021/11/10 01:37:00;;;;;;;11.73;7.45;;;;;;;;;;4995268;28;20182;-76
2021/11/10 01:39:26;;;;;;;12.30;7.00;;;;;;;;;;4994857;28;20180;-77
2021/11/10 01:41:55;;;;;;;14.95;7.03;;;;;;;;;;4995006;28;20517;-76
2021/11/10 01:44:23;;;;;;;11.88;6.72;;;;;;;;;;4994968;28;20656;-77
2021/11/10 01:46:49;;;;;;;14.13;7.60;;;;;;;;;;4994940;28;20233;-76
2021/11/10 01:49:15;;;;;;;9.38;6.43;;;;;;;;;;4994645;28;20206;-78
2021/11/10 01:51:43;;;;;;;9.20;6.15;;;;;;;;;;4994917;28;20222;-80
2021/11/10 01:54:11;;;;;;;9.20;6.00;;;;;;;;;;4994910;28;20198;-77
2021/11/10 01:56:38;;;;;;;9.55;6.60;;;;;;;;;;4994600;28;20190;-78
2021/11/10 01:59:04;;;;;;;8.77;5.95;;;;;;;;;;4994816;28;20187;-78
2021/11/10 02:01:30;;;;;;;10.40;6.13;;;;;;;;;;4994328;28;20230;-77
2021/11/10 02:03:56;;;;;;;12.05;7.13;;;;;;;;;;4993475;28;20211;-81
2021/11/10 02:06:23;;;;;;;14.63;8.13;;;;;;;;;;4995010;28;20203;-79
2021/11/10 02:08:49;;;;;;;11.32;6.32;;;;;;;;;;4994499;28;20171;-79
2021/11/10 02:11:15;;;;;;;11.68;6.85;;;;;;;;;;4992832;28;20201;-77
2021/11/10 02:13:43;;;;;;;13.73;6.38;;;;;;;;;;4994465;28;20176;-77
2021/11/10 02:16:10;;;;;;;11.00;6.05;;;;;;;;;;4994508;28;20194;-78
2021/11/10 02:18:38;;;;;;;9.77;6.13;;;;;;;;;;4994136;28;20175;-78
2021/11/10 02:21:09;;;;;;;12.70;7.03;;;;;;;;;;4993844;28;20581;-79
2021/11/10 02:23:35;;;;;;;10.00;7.13;;;;;;;;;;4994361;28;20182;-77
2021/11/10 02:26:03;;;;;;;13.88;6.53;;;;;;;;;;4994299;28;20249;-78
2021/11/10 02:28:29;;;;;;;14.65;7.97;;;;;;;;;;4994258;28;20182;-79
2021/11/10 02:30:55;;;;;;;14.30;7.20;;;;;;;;;;4993843;28;20612;-77
2021/11/10 02:33:26;;;;;;;8.98;5.93;;;;;;;;;;4994201;28;20403;-78
2021/11/10 02:35:58;;;;;;;12.90;6.90;;;;;;;;;;4994313;28;20175;-79
2021/11/10 02:38:25;;;;;;;10.23;7.07;;;;;;;;;;4993152;28;20174;-75
2021/11/10 02:40:56;;;;;;;11.48;6.75;;;;;;;;;;4993575;28;20233;-76
2021/11/10 02:43:22;;;;;;;10.00;7.15;;;;;;;;;;4994038;28;20262;-75
2021/11/10 02:45:49;;;;;;;13.93;6.57;;;;;;;;;;4993859;28;20210;-77
2021/11/10 02:48:15;;;;;;;16.52;7.55;;;;;;;;;;4993893;28;20228;-77
2021/11/10 02:50:41;;;;;;;10.85;7.15;;;;;;;;;;4993517;28;20202;-78
2021/11/10 02:53:08;;;;;;;17.77;8.02;;;;;;;;;;4992549;28;20177;-77
2021/11/10 02:55:34;;;;;;;14.52;7.75;;;;;;;;;;4993838;28;20178;-76
2021/11/10 02:58:00;;;;;;;12.52;6.07;;;;;;;;;;4993880;28;20218;-75
2021/11/10 03:00:27;;;;;;;14.68;6.53;;;;;;;;;;4993392;28;20198;-76
2021/11/10 03:02:54;;;;;;;15.98;8.15;;;;;;;;;;4993739;28;20181;-76
2021/11/10 03:05:21;;;;;;;13.18;6.82;;;;;;;;;;4992396;28;20186;-77
2021/11/10 03:07:47;;;;;;;16.52;7.50;;;;;;;;;;4993800;28;20669;-78
2021/11/10 03:10:13;;;;;;;12.68;7.43;;;;;;;;;;4993475;28;20224;-75
2021/11/10 03:12:39;;;;;;;10.88;6.93;;;;;;;;;;4993764;28;20201;-75
2021/11/10 03:15:06;;;;;;;17.48;7.05;;;;;;;;;;4993524;28;20178;-78
2021/11/10 03:17:32;;;;;;;8.85;6.20;;;;;;;;;;4993800;28;20288;-77
2021/11/10 03:19:58;;;;;;;15.35;6.82;;;;;;;;;;4993141;28;20210;-75
2021/11/10 03:22:24;;;;;;;9.82;6.90;;;;;;;;;;4993815;28;20274;-79
2021/11/10 03:24:50;;;;;;;10.33;6.53;;;;;;;;;;4993752;28;20602;-78
2021/11/10 03:27:16;;;;;;;12.93;7.22;;;;;;;;;;4993483;28;20810;-79
2021/11/10 03:29:50;;;;;;;17.55;7.03;;;;;;;;;;4993089;28;20664;-78
2021/11/10 03:32:16;;;;;;;10.98;7.78;;;;;;;;;;4996020;28;20217;-77
2021/11/10 03:34:42;;;;;;;11.00;7.00;;;;;;;;;;4996146;28;20226;-78
2021/11/10 03:37:08;;;;;;;12.20;7.43;;;;;;;;;;4997295;28;20185;-78
2021/11/10 03:39:34;;;;;;;16.38;8.00;;;;;;;;;;4996907;28;20187;-76
2021/11/10 03:42:00;;;;;;;16.63;7.95;;;;;;;;;;4997345;28;20232;-76
2021/11/10 03:44:26;;;;;;;11.10;7.15;;;;;;;;;;4997237;28;20178;-78
2021/11/10 03:46:52;;;;;;;18.92;7.40;;;;;;;;;;4995832;28;20209;-78
2021/11/10 03:49:19;;;;;;;14.95;7.55;;;;;;;;;;4996591;28;20670;-75
2021/11/10 03:51:46;;;;;;;17.73;7.28;;;;;;;;;;4997156;28;20173;-79
2021/11/10 03:54:11;;;;;;;13.68;6.38;;;;;;;;;;4997067;28;20178;-76
2021/11/10 03:56:38;;;;;;;11.13;6.50;;;;;;;;;;4995722;28;20188;-79
2021/11/10 03:59:04;;;;;;;13.68;6.90;;;;;;;;;;4996907;28;20182;-75
2021/11/10 04:01:30;;;;;;;11.95;7.60;;;;;;;;;;4996171;28;20291;-75
2021/11/10 04:03:56;;;;;;;13.55;7.38;;;;;;;;;;4996810;28;20261;-77
2021/11/10 04:06:22;;;;;;;11.88;6.80;;;;;;;;;;4995384;28;20290;-75
2021/11/10 04:08:48;;;;;;;13.38;7.53;;;;;;;;;;4996954;28;20179;-77
2021/11/10 04:11:14;;;;;;;14.55;7.85;;;;;;;;;;4996641;28;20681;-77
2021/11/10 04:13:40;;;;;;;12.00;8.27;;;;;;;;;;4996567;28;20235;-77
2021/11/10 04:16:06;;;;;;;8.98;6.43;;;;;;;;;;4996757;28;20176;-77
2021/11/10 04:18:33;;;;;;;13.03;6.87;;;;;;;;;;4996760;28;20507;-77
2021/11/10 04:21:00;;;;;;;14.68;7.85;;;;;;;;;;4995509;28;20968;-79
2021/11/10 04:23:27;;;;;;;12.07;7.47;;;;;;;;;;4995312;28;20180;-77
2021/11/10 04:25:53;;;;;;;14.70;7.60;;;;;;;;;;4995281;28;20538;-77
2021/11/10 04:28:19;;;;;;;13.82;6.32;;;;;;;;;;4994353;28;20174;-75
2021/11/10 04:30:45;;;;;;;13.88;6.95;;;;;;;;;;4995086;28;20202;-77
2021/11/10 04:33:11;;;;;;;10.30;6.45;;;;;;;;;;4994258;28;20221;-77
2021/11/10 04:35:41;;;;;;;11.70;6.85;;;;;;;;;;4995317;28;20275;-76
2021/11/10 04:38:07;;;;;;;11.98;7.70;;;;;;;;;;4995555;28;20518;-77
2021/11/10 04:40:33;;;;;;;10.55;6.68;;;;;;;;;;4994725;28;20230;-76
2021/11/10 04:42:59;;;;;;;11.20;6.05;;;;;;;;;;4995115;28;20233;-77
2021/11/10 04:45:32;;;;;;;9.65;6.95;;;;;;;;;;4993887;28;20184;-78
2021/11/10 04:47:58;;;;;;;11.85;7.38;;;;;;;;;;4993623;28;20205;-76
2021/11/10 04:50:27;;;;;;;9.05;6.22;;;;;;;;;;4994620;28;20194;-76
2021/11/10 04:52:53;;;;;;;9.30;6.57;;;;;;;;;;4994948;28;20267;-76
2021/11/10 04:55:19;;;;;;;10.02;6.78;;;;;;;;;;4993658;28;20186;-75
2021/11/10 04:57:45;;;;;;;12.35;6.75;;;;;;;;;;4994786;28;20214;-75
2021/11/10 05:00:12;;;;;;;12.57;6.93;;;;;;;;;;4993169;28;20209;-75
2021/11/10 05:02:39;;;;;;;15.52;7.05;;;;;;;;;;4994739;28;20578;-78
2021/11/10 05:05:06;;;;;;;8.02;6.32;;;;;;;;;;4994852;28;20265;-76
2021/11/10 05:07:32;;;;;;;9.32;6.35;;;;;;;;;;4994607;28;20292;-78
2021/11/10 05:09:58;;;;;;;9.27;6.95;;;;;;;;;;4994298;28;20556;-78
2021/11/10 05:12:24;;;;;;;9.25;6.25;;;;;;;;;;4994730;28;20575;-79
2021/11/10 05:14:55;;;;;;;9.50;7.05;;;;;;;;;;4993273;28;20183;-78
2021/11/10 05:17:21;;;;;;;11.88;6.50;;;;;;;;;;4994748;28;20178;-78
2021/11/10 05:19:47;;;;;;;12.23;6.68;;;;;;;;;;4956600;28;1092990;-78
2021/11/10 05:22:14;;;;;;;13.38;7.65;;;;;;;;;;4994258;28;20186;-76
2021/11/10 05:24:40;;;;;;;12.52;7.00;;;;;;;;;;4995317;28;20202;-79
2021/11/10 05:27:06;;;;;;;11.77;6.93;;;;;;;;;;4995261;28;20206;-79
2021/11/10 05:29:33;;;;;;;12.90;6.20;;;;;;;;;;4994790;28;20173;-76
2021/11/10 05:31:59;;;;;;;9.68;6.70;;;;;;;;;;4995358;28;20177;-77
2021/11/10 05:34:25;;;;;;;11.40;6.20;;;;;;;;;;4994038;28;20185;-77
2021/11/10 05:36:51;;;;;;;11.88;6.47;;;;;;;;;;4995307;28;20240;-79
2021/11/10 05:39:17;;;;;;;15.38;7.03;;;;;;;;;;4993405;28;20183;-78
2021/11/10 05:41:44;;;;;;;10.52;6.40;;;;;;;;;;4995093;28;20182;-76
2021/11/10 05:44:11;;;;;;;13.10;6.40;;;;;;;;;;4995173;28;20584;-79
2021/11/10 05:46:36;;;;;;;11.75;6.55;;;;;;;;;;4995035;28;20260;-77
2021/11/10 05:49:03;;;;;;;10.88;6.53;;;;;;;;;;4995129;28;20191;-78
2021/11/10 05:51:29;;;;;;;11.25;6.10;;;;;;;;;;4994770;28;20194;-76
2021/11/10 05:53:57;;;;;;;9.45;7.10;;;;;;;;;;4995304;28;20260;-77
2021/11/10 05:56:24;;;;;;;11.32;7.20;;;;;;;;;;4998151;28;20171;-77
2021/11/10 05:58:51;;;;;;;11.30;6.55;;;;;;;;;;4994817;28;20649;-76
2021/11/10 06:01:18;;;;;;;14.98;6.90;;;;;;;;;;4994475;28;20203;-78
2021/11/10 06:03:44;;;;;;;9.68;7.00;;;;;;;;;;4994807;28;20187;-77
2021/11/10 06:06:10;;;;;;;11.52;6.40;;;;;;;;;;4994560;28;20210;-77
2021/11/10 06:08:37;;;;;;;9.23;6.70;;;;;;;;;;4994422;28;20188;-76
2021/11/10 06:11:06;;;;;;;18.35;7.40;;;;;;;;;;4993110;28;20274;-78
2021/11/10 06:13:32;;;;;;;8.85;6.35;;;;;;;;;;4994671;28;20171;-77
2021/11/10 06:15:58;;;;;;;12.25;6.97;;;;;;;;;;4994889;28;20179;-77
2021/11/10 06:18:25;;;;;;;16.70;8.10;;;;;;;;;;4994419;28;20597;-74
2021/11/10 06:20:51;;;;;;;10.25;7.13;;;;;;;;;;4993936;28;20260;-76
2021/11/10 06:23:17;;;;;;;13.80;7.13;;;;;;;;;;4994435;28;20640;-75
2021/11/10 06:25:43;;;;;;;16.08;7.43;;;;;;;;;;4994198;28;20172;-76
2021/11/10 06:28:09;;;;;;;9.52;6.03;;;;;;;;;;4994023;28;20667;-77
2021/11/10 06:30:35;;;;;;;13.07;6.63;;;;;;;;;;4992333;28;20202;-77
2021/11/10 06:33:01;;;;;;;11.20;6.00;;;;;;;;;;4993063;28;20187;-79
2021/11/10 06:35:28;;;;;;;15.18;7.43;;;;;;;;;;4993316;28;20540;-78
2021/11/10 06:37:54;;;;;;;10.95;7.30;;;;;;;;;;4994496;28;20229;-75
2021/11/10 06:40:20;;;;;;;15.30;7.50;;;;;;;;;;4993904;28;20232;-75
2021/11/10 06:42:46;;;;;;;10.18;6.70;;;;;;;;;;4992755;28;20179;-77
2021/11/10 06:45:12;;;;;;;9.75;6.90;;;;;;;;;;4994090;28;20662;-75
2021/11/10 06:47:38;;;;;;;14.82;7.38;;;;;;;;;;4993961;28;20240;-75
2021/11/10 06:50:05;;;;;;;12.25;6.65;;;;;;;;;;4993560;28;20199;-76
2021/11/10 06:52:31;;;;;;;12.68;7.32;;;;;;;;;;4992654;28;20219;-74
2021/11/10 06:54:57;;;;;;;11.48;7.32;;;;;;;;;;4993896;28;20173;-74
2021/11/10 06:57:25;;;;;;;10.20;7.43;;;;;;;;;;4993867;28;20593;-77
2021/11/10 06:59:51;;;;;;;10.20;7.00;;;;;;;;;;4993625;28;20194;-75
2021/11/10 07:02:17;;;;;;;17.27;6.63;;;;;;;;;;4993900;28;20176;-75
2021/11/10 07:04:43;;;;;;;10.75;7.82;;;;;;;;;;4993656;28;20184;-77
2021/11/10 07:07:09;;;;;;;10.25;7.15;;;;;;;;;;4992626;28;20577;-76
2021/11/10 07:09:35;;;;;;;10.85;7.25;;;;;;;;;;4993455;28;20171;-76
2021/11/10 07:12:01;;;;;;;10.55;7.78;;;;;;;;;;4993981;28;20657;-75
2021/11/10 07:14:28;;;;;;;14.18;7.78;;;;;;;;;;4992555;28;20203;-76
2021/11/10 07:16:54;;;;;;;14.13;7.40;;;;;;;;;;4993743;28;20644;-79
2021/11/10 07:19:21;;;;;;;19.17;8.52;;;;;;;;;;4993417;28;20206;-77
2021/11/10 07:21:47;;;;;;;11.32;7.80;;;;;;;;;;4993664;28;20262;-78
2021/11/10 07:24:13;;;;;;;18.05;10.90;;;;;;;;;;4992610;28;20186;-77
2021/11/10 07:26:39;;;;;;;24.02;10.57;;;;;;;;;;4993842;28;20201;-77
2021/11/10 07:29:05;;;;;;;15.63;9.82;;;;;;;;;;4992365;28;20677;-79
2021/11/10 07:31:33;;;;;;;22.65;9.20;;;;;;;;;;4994061;28;20206;-78
2021/11/10 07:33:59;;;;;;;12.85;8.48;;;;;;;;;;4994752;28;20170;-78
2021/11/10 07:36:26;;;;;;;18.90;9.70;;;;;;;;;;4993764;28;20245;-79
2021/11/10 07:38:54;;;;;;;16.75;10.02;;;;;;;;;;4993536;28;20218;-77
2021/11/10 07:41:20;;;;;;;14.30;8.55;;;;;;;;;;4993182;28;20196;-77
2021/11/10 07:43:51;;;;;;;15.85;9.20;;;;;;;;;;4993387;28;20201;-77
2021/11/10 07:46:19;;;;;;;23.67;9.80;;;;;;;;;;4992124;28;20675;-76
2021/11/10 07:48:47;;;;;;;18.80;10.65;;;;;;;;;;4993386;28;20584;-76
2021/11/10 07:51:13;;;;;;;14.93;9.88;;;;;;;;;;4992900;28;20261;-76
2021/11/10 07:53:39;;;;;;;13.00;8.93;;;;;;;;;;4993497;28;20651;-77
2021/11/10 07:56:06;;;;;;;16.30;10.63;;;;;;;;;;4993533;28;20174;-77
2021/11/10 07:58:32;;;;;;;17.70;9.73;;;;;;;;;;4993391;28;20178;-79
2021/11/10 08:00:58;;;;;;;16.25;9.75;;;;;;;;;;4991780;28;20677;-78
2021/11/10 08:03:24;;;;;;;14.23;9.20;;;;;;;;;;4991938;28;20182;-78
2021/11/10 08:05:50;;;;;;;16.02;8.95;;;;;;;;;;4993300;28;20183;-77
2021/11/10 08:08:17;;;;;;;14.85;8.82;;;;;;;;;;4991986;28;20215;-78
2021/11/10 08:10:43;;;;;;;17.10;9.15;;;;;;;;;;4991633;28;20663;-78
2021/11/10 08:13:10;;;;;;;20.17;9.85;;;;;;;;;;4992045;28;20281;-78
2021/11/10 08:15:36;;;;;;;25.13;11.20;;;;;;;;;;4993047;28;20175;-78
2021/11/10 08:18:03;;;;;;;14.82;10.88;;;;;;;;;;4995365;28;20183;-78
2021/11/10 08:20:29;;;;;;;17.33;10.70;;;;;;;;;;4996443;28;20297;-77
2021/11/10 08:22:55;;;;;;;20.15;10.48;;;;;;;;;;4995967;28;20183;-80
2021/11/10 08:25:21;;;;;;;24.15;10.70;;;;;;;;;;4995400;28;20188;-80
2021/11/10 08:27:48;;;;;;;17.73;10.13;;;;;;;;;;4996544;28;20226;-80
2021/11/10 08:30:16;;;;;;;19.48;12.63;;;;;;;;;;4996178;28;20246;-79
2021/11/10 08:32:43;;;;;;;14.73;10.27;;;;;;;;;;4996373;28;20174;-76
2021/11/10 08:35:09;;;;;;;17.05;11.20;;;;;;;;;;4996429;28;20172;-79
2021/11/10 08:37:36;;;;;;;21.48;11.38;;;;;;;;;;4996314;28;20179;-79
2021/11/10 08:40:02;;;;;;;21.15;11.20;;;;;;;;;;4994789;28;20273;-80
2021/11/10 08:42:34;;;;;;;19.15;9.90;;;;;;;;;;4996289;28;20187;-79
2021/11/10 08:45:04;;;;;;;19.02;12.20;;;;;;;;;;4996353;28;20175;-79
2021/11/10 08:47:30;;;;;;;18.40;10.20;;;;;;;;;;4996260;28;20265;-80
2021/11/10 08:49:56;;;;;;;15.60;9.65;;;;;;;;;;4994517;28;20691;-79
2021/11/10 08:52:22;;;;;;;21.00;9.60;;;;;;;;;;4996259;28;20175;-78
2021/11/10 08:54:48;;;;;;;15.10;9.38;;;;;;;;;;4996183;28;20192;-77
2021/11/10 08:57:14;;;;;;;14.73;10.25;;;;;;;;;;4996007;28;20315;-78
2021/11/10 08:59:43;;;;;;;17.00;10.00;;;;;;;;;;4995527;28;20203;-78
2021/11/10 09:02:09;;;;;;;18.90;9.38;;;;;;;;;;4995949;28;20180;-77
2021/11/10 09:04:35;;;;;;;17.73;10.30;;;;;;;;;;4994563;28;20187;-76
2021/11/10 09:07:01;;;;;;;17.00;9.73;;;;;;;;;;4995529;28;20459;-80
2021/11/10 09:09:27;;;;;;;14.38;9.90;;;;;;;;;;4995365;28;20593;-79
2021/11/10 09:11:53;;;;;;;13.55;9.57;;;;;;;;;;4995414;28;20207;-79
2021/11/10 09:14:20;;;;;;;18.83;10.35;;;;;;;;;;4995740;28;20182;-76
2021/11/10 09:16:46;;;;;;;15.93;10.30;;;;;;;;;;4995768;28;20262;-76
2021/11/10 09:19:12;;;;;;;14.48;10.10;;;;;;;;;;4994341;28;20211;-78
2021/11/10 09:21:38;;;;;;;13.38;8.68;;;;;;;;;;4995404;28;20274;-77
2021/11/10 09:24:05;;;;;;;12.40;8.05;;;;;;;;;;4994566;28;20207;-80
2021/11/10 09:26:31;;;;;;;11.82;7.57;;;;;;;;;;4995299;28;20215;-76
2021/11/10 09:28:57;;;;;;;16.25;8.35;;;;;;;;;;4994429;28;20187;-79
2021/11/10 09:31:24;;;;;;;14.70;7.50;;;;;;;;;;4993871;28;20199;-78
2021/11/10 09:33:54;;;;;;;7.60;6.13;;;;;;;;;;4995405;28;20696;-77
2021/11/10 09:36:20;;;;;;;13.52;7.45;;;;;;;;;;4995527;28;20199;-78
2021/11/10 09:38:46;;;;;;;8.32;6.15;;;;;;;;;;4994205;28;20183;-78
2021/11/10 09:41:12;;;;;;;10.27;6.07;;;;;;;;;;4994711;28;20563;-78
2021/11/10 09:43:40;;;;;;;11.00;6.38;;;;;;;;;;4995103;28;20179;-77
2021/11/10 09:46:07;;;;;;;8.87;6.53;;;;;;;;;;4994671;28;20180;-76
2021/11/10 09:48:34;;;;;;;8.27;5.50;;;;;;;;;;4994937;28;20887;-78
2021/11/10 09:51:00;;;;;;;15.10;6.03;;;;;;;;;;4994543;28;20777;-77
2021/11/10 09:53:26;;;;;;;15.33;5.60;;;;;;;;;;4994827;28;20498;-78
2021/11/10 09:55:55;;;;;;;8.80;5.60;;;;;;;;;;4993820;28;20411;-76
2021/11/10 09:58:22;;;;;;;8.70;5.97;;;;;;;;;;4994952;28;20453;-77
2021/11/10 10:00:50;;;;;;;10.10;5.33;;;;;;;;;;4994576;28;20788;-78
2021/11/10 10:03:16;;;;;;;8.70;5.63;;;;;;;;;;4993748;28;20817;-76
2021/11/10 10:05:44;;;;;;;9.57;6.20;;;;;;;;;;4994693;28;20421;-77
2021/11/10 10:08:10;;;;;;;7.60;6.33;;;;;;;;;;4994516;28;20862;-77
2021/11/10 10:10:39;;;;;;;9.43;5.97;;;;;;;;;;4994176;28;20423;-77
2021/11/10 10:13:05;;;;;;;12.93;6.70;;;;;;;;;;4994641;28;20413;-78
2021/11/10 10:15:33;;;;;;;7.90;5.87;;;;;;;;;;4994391;28;20414;-77
2021/11/10 10:17:59;;;;;;;12.03;6.63;;;;;;;;;;4994533;28;20513;-77
2021/11/10 10:20:27;;;;;;;14.30;6.77;;;;;;;;;;4994033;28;20446;-78
2021/11/10 10:22:54;;;;;;;9.43;5.70;;;;;;;;;;4993485;28;20782;-78
2021/11/10 10:25:20;;;;;;;9.57;7.13;;;;;;;;;;4994649;28;20911;-76
2021/11/10 10:27:57;;;;;;;9.60;6.55;;;;;;;;;;4994354;28;20211;-78
2021/11/10 10:30:26;;;;;;;7.60;6.70;;;;;;;;;;4993737;28;20221;-77
2021/11/10 10:32:59;;;;;;;10.20;6.00;;;;;;;;;;4994152;28;20403;-77
2021/11/10 10:35:49;;;;;;;8.87;7.57;;;;;;;;;;4994341;28;20498;-76
2021/11/10 10:38:16;;;;;;;8.70;6.73;;;;;;;;;;4986566;28;20426;-78
2021/11/10 10:40:44;;;;;;;10.73;6.93;;;;;;;;;;4993371;28;20504;-77
2021/11/10 10:43:10;;;;;;;9.63;6.47;;;;;;;;;;4994114;28;20493;-77
2021/11/10 10:45:38;;;;;;;12.02;6.70;;;;;;;;;;4994332;28;20410;-77
2021/11/10 10:48:06;;;;;;;10.10;7.10;;;;;;;;;;4994167;28;20207;-76
2021/11/10 10:50:37;;;;;;;7.43;5.97;;;;;;;;;;4993620;28;20438;-77
2021/11/10 10:53:03;;;;;;;9.97;6.47;;;;;;;;;;4993976;28;20407;-79
2021/11/10 10:55:34;;;;;;;15.10;6.63;;;;;;;;;;4993909;28;20402;-79
2021/11/10 10:58:00;;;;;;;10.77;6.83;;;;;;;;;;4993887;28;20906;-77
2021/11/10 11:00:30;;;;;;;12.07;6.90;;;;;;;;;;4993569;28;20442;-77
2021/11/10 11:03:19;;;;;;;10.80;6.77;;;;;;;;;;4993825;28;20442;-78
2021/11/10 11:05:46;;;;;;;12.37;6.90;;;;;;;;;;4986102;28;20430;-76
2021/11/10 11:08:31;;;;;;;10.53;7.20;;;;;;;;;;4992042;28;20463;-75
2021/11/10 11:11:02;;;;;;;9.90;6.87;;;;;;;;;;4992018;28;20470;-77
2021/11/10 11:13:48;;;;;;;9.65;6.57;;;;;;;;;;4993756;28;20407;-78
2021/11/10 11:16:17;;;;;;;10.50;6.97;;;;;;;;;;4992507;28;20203;-77
2021/11/10 11:18:44;;;;;;;12.20;7.95;;;;;;;;;;4993564;28;20773;-77
2021/11/10 11:21:20;;;;;;;15.00;7.20;;;;;;;;;;4993074;28;20215;-75
2021/11/10 11:23:46;;;;;;;7.93;6.10;;;;;;;;;;4993688;28;20419;-75
2021/11/10 11:26:35;;;;;;;10.33;6.73;;;;;;;;;;4992447;28;20411;-77
2021/11/10 11:29:18;;;;;;;9.07;6.40;;;;;;;;;;4993430;28;20422;-75
2021/11/10 11:31:44;;;;;;;9.77;6.17;;;;;;;;;;4993465;28;20402;-78
2021/11/10 11:34:10;;;;;;;8.97;6.03;;;;;;;;;;4993835;28;20418;-77
2021/11/10 11:37:02;;;;;;;9.03;6.10;;;;;;;;;;4993737;28;20742;-79
2021/11/10 11:39:28;;;;;;;10.33;7.13;;;;;;;;;;4990656;28;20983;-78
2021/11/10 11:41:54;;;;;;;8.40;6.63;;;;;;;;;;4992707;28;20895;-77
2021/11/10 11:44:21;;;;;;;9.33;6.50;;;;;;;;;;4992325;28;20413;-77
2021/11/10 11:46:47;;;;;;;10.20;6.90;;;;;;;;;;4993481;28;20898;-76
2021/11/10 11:49:15;;;;;;;8.43;6.10;;;;;;;;;;4993019;28;20406;-79
2021/11/10 11:51:41;;;;;;;7.20;6.30;;;;;;;;;;4992179;28;20430;-75
2021/11/10 11:54:08;;;;;;;8.97;5.60;;;;;;;;;;4996826;28;20411;-75
2021/11/10 11:56:34;;;;;;;8.13;5.53;;;;;;;;;;4996429;28;20406;-78
2021/11/10 11:59:01;;;;;;;6.87;5.30;;;;;;;;;;4996446;28;20789;-78
2021/11/10 12:01:30;;;;;;;9.50;5.03;;;;;;;;;;4996673;28;20517;-77
2021/11/10 12:04:07;;;;;;;6.87;5.10;;;;;;;;;;4997067;28;20430;-78
2021/11/10 12:06:34;;;;;;;6.97;4.93;;;;;;;;;;4996893;28;20941;-76
2021/11/10 12:09:01;;;;;;;7.37;4.17;;;;;;;;;;4996750;28;20388;-78
2021/11/10 12:11:27;;;;;;;7.53;5.60;;;;;;;;;;4996358;28;20907;-79
2021/11/10 12:13:59;;;;;;;9.93;5.50;;;;;;;;;;4996977;28;20915;-79
2021/11/10 12:16:25;;;;;;;8.37;4.80;;;;;;;;;;4996765;28;20846;-77
2021/11/10 12:18:56;;;;;;;6.07;4.60;;;;;;;;;;4996679;28;20415;-78
2021/11/10 12:21:30;;;;;;;10.00;5.03;;;;;;;;;;4994741;28;20978;-79
2021/11/10 12:23:56;;;;;;;5.93;4.70;;;;;;;;;;4996831;28;20411;-77
2021/11/10 12:26:24;;;;;;;6.20;4.60;;;;;;;;;;4996449;28;20485;-77
2021/11/10 12:28:50;;;;;;;5.63;4.13;;;;;;;;;;4996892;28;20411;-75
2021/11/10 12:31:37;;;;;;;6.90;4.83;;;;;;;;;;4996212;28;20430;-76
2021/11/10 12:34:03;;;;;;;6.20;4.73;;;;;;;;;;4996376;28;20418;-78
2021/11/10 12:36:48;;;;;;;5.80;4.90;;;;;;;;;;4996426;28;20419;-78
2021/11/10 12:39:14;;;;;;;9.13;5.27;;;;;;;;;;4995894;28;20778;-78
2021/11/10 12:41:49;;;;;;;10.10;5.50;;;;;;;;;;4995869;28;20430;-76
2021/11/10 12:44:25;;;;;;;6.60;5.30;;;;;;;;;;4994970;28;20421;-78
2021/11/10 12:46:52;;;;;;;5.33;4.60;;;;;;;;;;4995004;28;20458;-78
2021/11/10 12:49:18;;;;;;;7.10;5.27;;;;;;;;;;4995805;28;20419;-79
2021/11/10 12:51:44;;;;;;;7.27;5.50;;;;;;;;;;4996091;28;20442;-76
2021/11/10 12:54:24;;;;;;;6.40;4.70;;;;;;;;;;4994949;28;20423;-78
2021/11/10 12:56:50;;;;;;;8.33;5.40;;;;;;;;;;4996153;28;20442;-78
2021/11/10 12:59:20;;;;;;;12.43;5.90;;;;;;;;;;4995527;28;20415;-78
2021/11/10 13:01:46;;;;;;;12.60;5.50;;;;;;;;;;4995750;28;20414;-78
2021/11/10 13:04:12;;;;;;;13.70;5.13;;;;;;;;;;4994537;28;20514;-77
2021/11/10 13:07:00;;;;;;;10.30;6.33;;;;;;;;;;4995754;28;20967;-77
2021/11/10 13:09:34;;;;;;;10.50;5.60;;;;;;;;;;4995308;28;20418;-77
2021/11/10 13:12:02;;;;;;;9.53;4.93;;;;;;;;;;4995745;28;20461;-77
2021/11/10 13:14:28;;;;;;;7.00;5.40;;;;;;;;;;4995482;28;20498;-76
2021/11/10 13:17:00;;;;;;;6.20;4.80;;;;;;;;;;4995520;28;20407;-78
2021/11/10 13:19:41;;;;;;;6.70;5.40;;;;;;;;;;4993821;28;20422;-76
2021/11/10 13:22:08;;;;;;;10.03;6.17;;;;;;;;;;4995377;28;20501;-77
2021/11/10 13:24:34;;;;;;;8.57;5.57;;;;;;;;;;4995363;28;20490;-77
2021/11/10 13:27:00;;;;;;;9.87;5.33;;;;;;;;;;4995308;28;20460;-77
2021/11/10 13:29:27;;;;;;;6.80;5.80;;;;;;;;;;4994978;28;20411;-78
2021/11/10 13:32:09;;;;;;;10.80;6.20;;;;;;;;;;4995148;28;20451;-77
2021/11/10 13:34:35;;;;;;;7.87;6.27;;;;;;;;;;4994039;28;20899;-77
2021/11/10 13:37:01;;;;;;;10.60;5.70;;;;;;;;;;4995324;28;20828;-77
2021/11/10 13:39:27;;;;;;;15.17;6.57;;;;;;;;;;4995019;28;20774;-77
2021/11/10 13:41:56;;;;;;;9.37;5.57;;;;;;;;;;4993690;28;20415;-77
2021/11/10 13:44:23;;;;;;;9.67;5.73;;;;;;;;;;4995216;28;20419;-78
2021/11/10 13:46:49;;;;;;;9.07;6.43;;;;;;;;;;4994995;28;20459;-78
2021/11/10 13:49:20;;;;;;;10.00;6.10;;;;;;;;;;4994857;28;20485;-77
2021/11/10 13:51:51;;;;;;;8.57;5.70;;;;;;;;;;4995084;28;20967;-78
2021/11/10 13:54:17;;;;;;;7.37;6.10;;;;;;;;;;4995005;28;20402;-76
2021/11/10 13:57:06;;;;;;;8.80;6.23;;;;;;;;;;4993792;28;20423;-77
2021/11/10 13:59:36;;;;;;;11.13;7.20;;;;;;;;;;4994477;28;20418;-77
2021/11/10 14:02:10;;;;;;;11.20;5.83;;;;;;;;;;4994648;28;20476;-75
2021/11/10 14:04:37;;;;;;;13.90;6.50;;;;;;;;;;4994685;28;20418;-77
2021/11/10 14:07:05;;;;;;;10.97;6.90;;;;;;;;;;4994601;28;20481;-75
2021/11/10 14:09:32;;;;;;;8.90;6.10;;;;;;;;;;4994255;28;20410;-77
2021/11/10 14:12:17;;;;;;;12.90;6.67;;;;;;;;;;4993220;28;20502;-75
2021/11/10 14:14:43;;;;;;;10.70;6.33;;;;;;;;;;4994004;28;20407;-76
2021/11/10 14:17:09;;;;;;;7.83;6.23;;;;;;;;;;4994465;28;20421;-76
2021/11/10 14:19:35;;;;;;;9.73;6.00;;;;;;;;;;4992920;28;20411;-77
2021/11/10 14:22:01;;;;;;;9.40;5.90;;;;;;;;;;4992965;28;20466;-78
2021/11/10 14:24:29;;;;;;;12.70;8.10;;;;;;;;;;4994187;28;20411;-77
2021/11/10 14:26:55;;;;;;;10.10;7.63;;;;;;;;;;4994388;28;20811;-77
2021/11/10 14:29:22;;;;;;;11.90;8.50;;;;;;;;;;4992753;28;20766;-75
2021/11/10 14:31:48;;;;;;;10.50;6.50;;;;;;;;;;4994672;28;20878;-76
2021/11/10 14:34:14;;;;;;;10.27;7.47;;;;;;;;;;4994177;28;20407;-75
2021/11/10 14:36:41;;;;;;;11.30;7.77;;;;;;;;;;4993090;28;20406;-76